Time;durP1;ratioP1;P1;durP2;ratioP2;P2;SDS_P1;SDS_P2;PMS_P1;PMS_P2;Temp;Humidity;BMP_temperature;BMP_pressure;BME280_temperature;BME280_humidity;BME280_pressure;Samples;Min_cycle;Max_cycle;Signal;HPM_P1;HPM_P2
2022/09/26 00:01:18;;;;;;;9.30;4.72;;;10.10;99.90;;;;;;5125307;28;20031;-73
2022/09/26 00:03:51;;;;;;;13.65;4.38;;;10.10;99.90;;;;;;5125432;28;20069;-75
2022/09/26 00:06:17;;;;;;;8.55;4.18;;;10.10;99.90;;;;;;5124341;28;20037;-73
2022/09/26 00:08:45;;;;;;;14.90;3.75;;;10.20;99.90;;;;;;5125195;28;20761;-74
2022/09/26 00:11:13;;;;;;;16.00;4.60;;;10.10;99.90;;;;;;5123679;28;20024;-74
2022/09/26 00:13:42;;;;;;;8.60;3.72;;;10.10;99.90;;;;;;5124689;28;20028;-73
2022/09/26 00:16:09;;;;;;;6.97;3.95;;;10.10;99.90;;;;;;5125351;28;20055;-74
2022/09/26 00:18:35;;;;;;;7.47;4.25;;;10.10;99.90;;;;;;5123051;28;20889;-74
2022/09/26 00:21:06;;;;;;;8.07;4.05;;;10.10;99.90;;;;;;5124301;28;20027;-73
2022/09/26 00:23:31;;;;;;;10.02;3.88;;;10.00;99.90;;;;;;5124705;28;20027;-72
2022/09/26 00:25:57;;;;;;;10.55;4.20;;;10.00;99.90;;;;;;5124392;28;20036;-73
2022/09/26 00:28:23;;;;;;;13.07;3.78;;;10.00;99.90;;;;;;5124488;28;20019;-73
2022/09/26 00:30:49;;;;;;;11.00;3.75;;;10.00;99.90;;;;;;5124739;27;20151;-72
2022/09/26 00:33:15;;;;;;;9.63;3.58;;;10.00;99.90;;;;;;5124636;28;20079;-74
2022/09/26 00:35:48;;;;;;;6.72;3.80;;;10.00;99.90;;;;;;5124535;28;20040;-73
2022/09/26 00:38:14;;;;;;;10.85;4.38;;;10.00;99.90;;;;;;5124308;28;20547;-75
2022/09/26 00:40:40;;;;;;;7.65;4.00;;;10.00;99.90;;;;;;5124710;28;20083;-74
2022/09/26 00:43:31;;;;;;;8.55;3.97;;;10.10;99.90;;;;;;5125058;28;20114;-74
2022/09/26 00:46:01;;;;;;;17.02;4.50;;;10.10;99.90;;;;;;5124132;28;20031;-73
2022/09/26 00:48:28;;;;;;;9.68;4.07;;;10.10;99.90;;;;;;5123884;28;20047;-73
2022/09/26 00:50:54;;;;;;;18.38;3.95;;;10.10;99.90;;;;;;5124555;28;20049;-73
2022/09/26 00:53:26;;;;;;;16.45;3.75;;;10.10;99.90;;;;;;5121955;28;20027;-75
2022/09/26 00:55:58;;;;;;;13.45;3.72;;;10.00;99.90;;;;;;5124349;28;20440;-73
2022/09/26 00:58:32;;;;;;;9.27;3.45;;;10.10;99.90;;;;;;5124486;28;20761;-73
2022/09/26 01:00:59;;;;;;;7.43;3.70;;;10.10;99.90;;;;;;5121667;28;20064;-73
2022/09/26 01:03:26;;;;;;;11.98;4.25;;;10.10;99.90;;;;;;5123900;28;20063;-73
2022/09/26 01:05:53;;;;;;;7.82;4.00;;;10.10;99.90;;;;;;5123123;28;20464;-74
2022/09/26 01:08:24;;;;;;;12.65;4.65;;;10.10;99.90;;;;;;5123981;28;20012;-74
2022/09/26 01:10:49;;;;;;;7.93;3.78;;;10.10;99.90;;;;;;5122253;28;20372;-74
2022/09/26 01:13:16;;;;;;;9.20;4.18;;;10.10;99.90;;;;;;5123089;28;20023;-75
2022/09/26 01:15:44;;;;;;;9.32;3.72;;;10.10;99.90;;;;;;5122768;28;20042;-75
2022/09/26 01:18:09;;;;;;;8.88;4.00;;;10.10;99.90;;;;;;5123928;28;20023;-74
2022/09/26 01:21:17;;;;;;;15.02;4.50;;;10.10;99.90;;;;;;5124111;28;20028;-73
2022/09/26 01:24:09;;;;;;;12.50;4.97;;;10.10;99.90;;;;;;5122871;28;20040;-74
2022/09/26 01:27:00;;;;;;;6.85;3.67;;;10.10;99.90;;;;;;5124006;28;20046;-74
2022/09/26 01:29:38;;;;;;;9.23;3.75;;;10.10;99.90;;;;;;5123721;28;20023;-73
2022/09/26 01:35:30;;;;;;;10.63;4.43;;;10.10;99.90;;;;;;5123568;28;20042;-74
2022/09/26 01:38:29;;;;;;;9.15;4.10;;;10.10;99.90;;;;;;5122394;28;20018;-73
2022/09/26 01:41:16;;;;;;;14.85;4.68;;;10.20;99.90;;;;;;5122699;28;20061;-73
2022/09/26 01:44:05;;;;;;;11.95;4.55;;;10.20;99.90;;;;;;5122901;28;20051;-73
2022/09/26 01:46:37;;;;;;;11.00;4.28;;;10.20;99.90;;;;;;5122468;28;20045;-73
2022/09/26 01:49:13;;;;;;;7.47;4.03;;;10.20;99.90;;;;;;5123336;28;20031;-72
2022/09/26 01:51:54;;;;;;;12.23;4.57;;;10.20;99.90;;;;;;5123310;28;20028;-74
2022/09/26 01:54:29;;;;;;;12.10;4.43;;;10.10;99.90;;;;;;5122938;28;20016;-73
2022/09/26 01:56:57;;;;;;;13.20;4.57;;;10.20;99.90;;;;;;5122925;28;20070;-73
2022/09/26 01:59:47;;;;;;;11.57;4.80;;;10.20;99.90;;;;;;5122985;28;20024;-74
2022/09/26 02:02:25;;;;;;;10.27;4.93;;;10.20;99.90;;;;;;5122913;28;20129;-73
2022/09/26 02:05:00;;;;;;;11.25;4.68;;;10.20;99.90;;;;;;5122416;28;20031;-75
2022/09/26 02:07:44;;;;;;;10.75;4.68;;;10.20;99.90;;;;;;5121338;28;20035;-73
2022/09/26 02:10:19;;;;;;;6.68;4.10;;;10.30;99.90;;;;;;5122879;28;20114;-74
2022/09/26 02:12:53;;;;;;;7.13;4.20;;;10.20;99.90;;;;;;5122612;28;20051;-75
2022/09/26 02:15:23;;;;;;;16.70;4.43;;;10.30;99.90;;;;;;5122512;28;20022;-74
2022/09/26 02:17:56;;;;;;;11.30;4.20;;;10.30;99.90;;;;;;5122119;28;20467;-73
2022/09/26 02:20:31;;;;;;;12.32;4.18;;;10.30;99.90;;;;;;5122157;28;20028;-73
2022/09/26 02:22:59;;;;;;;8.23;4.03;;;10.30;99.90;;;;;;5122456;28;20023;-74
2022/09/26 02:25:27;;;;;;;8.52;4.30;;;10.30;99.90;;;;;;5122526;27;20039;-75
2022/09/26 02:27:53;;;;;;;12.80;3.70;;;10.30;99.90;;;;;;5122156;28;20035;-74
2022/09/26 02:30:19;;;;;;;10.50;4.50;;;10.30;99.90;;;;;;5122033;28;20424;-74
2022/09/26 02:32:44;;;;;;;8.68;3.90;;;10.40;99.90;;;;;;5122288;28;20049;-75
2022/09/26 02:37:54;;;;;;;7.68;3.20;;;10.30;99.90;;;;;;5122090;28;20053;-75
2022/09/26 02:40:29;;;;;;;9.82;4.07;;;10.30;99.90;;;;;;5122396;28;20032;-75
2022/09/26 02:43:01;;;;;;;;;;;10.30;99.90;;;;;;5120382;28;20077;-73
2022/09/26 02:46:07;;;;;;;8.70;4.07;;;10.30;99.90;;;;;;5121656;28;19955;-71
2022/09/26 02:48:51;;;;;;;8.50;4.05;;;10.30;99.90;;;;;;5098633;28;20078;-73
2022/09/26 02:51:36;;;;;;;8.52;4.35;;;10.30;99.90;;;;;;5122093;28;20019;-74
2022/09/26 02:54:06;;;;;;;7.88;3.83;;;10.40;99.90;;;;;;5122297;28;20027;-73
2022/09/26 02:56:51;;;;;;;10.68;3.75;;;10.40;99.90;;;;;;5121917;28;20030;-73
2022/09/26 02:59:28;;;;;;;9.30;4.13;;;10.40;99.90;;;;;;5121482;28;20038;-73
2022/09/26 03:02:04;;;;;;;7.20;3.83;;;10.40;99.90;;;;;;5121682;28;20057;-74
2022/09/26 03:04:43;;;;;;;9.60;4.20;;;10.40;99.90;;;;;;5121679;28;20083;-76
2022/09/26 03:07:37;;;;;;;7.25;3.33;;;10.40;99.90;;;;;;5122057;28;20022;-75
2022/09/26 03:10:08;;;;;;;9.20;3.63;;;10.50;99.90;;;;;;5103643;28;20035;-75
2022/09/26 03:12:36;;;;;;;11.13;4.10;;;10.50;99.90;;;;;;5121624;28;20046;-74
2022/09/26 03:15:04;;;;;;;12.90;4.22;;;10.50;99.90;;;;;;5121821;28;20023;-71
2022/09/26 03:17:33;;;;;;;8.52;3.63;;;10.50;99.90;;;;;;5121537;28;20020;-74
2022/09/26 03:20:14;;;;;;;8.35;4.25;;;10.50;99.90;;;;;;5119994;28;20012;-74
2022/09/26 03:22:42;;;;;;;9.77;4.07;;;10.50;99.90;;;;;;5121889;28;20046;-74
2022/09/26 03:25:13;;;;;;;9.02;4.05;;;10.50;99.90;;;;;;5121825;28;20035;-76
2022/09/26 03:27:42;;;;;;;6.82;3.60;;;10.60;99.90;;;;;;5121693;28;20034;-74
2022/09/26 03:30:10;;;;;;;6.03;3.17;;;10.50;99.90;;;;;;5123670;28;20221;-74
2022/09/26 03:32:36;;;;;;;15.30;3.40;;;10.50;99.90;;;;;;5125876;28;20046;-75
2022/09/26 03:35:02;;;;;;;10.93;3.55;;;10.50;99.90;;;;;;5125829;28;20483;-73
2022/09/26 03:37:28;;;;;;;8.88;3.83;;;10.50;99.90;;;;;;5124918;28;20016;-74
2022/09/26 03:39:53;;;;;;;8.45;3.38;;;10.50;99.90;;;;;;5125325;28;20034;-77
2022/09/26 03:42:19;;;;;;;9.02;3.53;;;10.50;99.90;;;;;;5125668;28;20187;-76
2022/09/26 03:44:45;;;;;;;6.35;3.35;;;10.50;99.90;;;;;;5125793;28;20035;-75
2022/09/26 03:47:11;;;;;;;10.27;3.22;;;10.50;99.90;;;;;;5125498;28;20050;-74
2022/09/26 03:49:37;;;;;;;6.40;2.88;;;10.50;99.90;;;;;;5125695;28;20519;-74
2022/09/26 03:52:04;;;;;;;6.63;2.92;;;10.50;99.90;;;;;;5124189;27;20088;-72
2022/09/26 03:54:29;;;;;;;8.65;3.75;;;10.50;99.90;;;;;;5123794;28;20015;-76
2022/09/26 03:56:55;;;;;;;6.05;2.65;;;10.50;99.90;;;;;;5125689;28;20035;-76
2022/09/26 03:59:21;;;;;;;4.85;2.78;;;10.50;99.90;;;;;;5125910;28;20053;-75
2022/09/26 04:01:47;;;;;;;8.73;3.20;;;10.50;99.90;;;;;;5124545;28;20038;-74
2022/09/26 04:04:15;;;;;;;11.20;3.45;;;10.50;99.90;;;;;;5125324;28;20016;-74
2022/09/26 04:06:42;;;;;;;7.88;3.05;;;10.50;99.90;;;;;;5124379;28;20023;-73
2022/09/26 04:09:10;;;;;;;5.85;2.72;;;10.50;99.90;;;;;;5125452;28;20118;-74
2022/09/26 04:11:36;;;;;;;4.90;2.95;;;10.50;99.90;;;;;;5125598;28;20045;-73
2022/09/26 04:14:02;;;;;;;6.85;2.90;;;10.50;99.90;;;;;;5124863;28;20026;-74
2022/09/26 04:16:28;;;;;;;7.30;3.17;;;10.50;99.90;;;;;;5125114;28;20020;-75
2022/09/26 04:18:56;;;;;;;7.18;2.83;;;10.50;99.90;;;;;;5124052;28;20031;-74
2022/09/26 04:21:22;;;;;;;4.88;2.67;;;10.50;99.90;;;;;;5124980;28;20019;-75
2022/09/26 04:23:49;;;;;;;6.53;2.92;;;10.50;99.90;;;;;;5125106;28;20488;-72
2022/09/26 04:26:17;;;;;;;7.32;3.13;;;10.50;99.90;;;;;;5123634;28;20202;-72
2022/09/26 04:28:44;;;;;;;8.40;2.88;;;10.50;99.90;;;;;;5124555;28;20024;-74
2022/09/26 04:31:14;;;;;;;10.15;3.22;;;10.50;99.90;;;;;;5124826;28;20038;-73
2022/09/26 04:33:40;;;;;;;4.32;2.65;;;10.50;99.90;;;;;;5124687;28;20114;-74
2022/09/26 04:36:11;;;;;;;9.82;2.85;;;10.50;99.90;;;;;;5123501;28;21122;-74
2022/09/26 04:38:38;;;;;;;10.30;2.95;;;10.50;99.90;;;;;;5124894;28;20632;-74
2022/09/26 04:41:10;;;;;;;5.97;2.65;;;10.60;99.90;;;;;;5121683;28;20483;-73
2022/09/26 04:43:37;;;;;;;6.47;2.35;;;10.60;99.90;;;;;;5123513;28;20056;-73
2022/09/26 04:46:08;;;;;;;7.75;2.80;;;10.60;99.90;;;;;;5121672;28;20039;-73
2022/09/26 04:48:34;;;;;;;7.75;3.45;;;10.70;99.90;;;;;;5123927;28;20091;-72
2022/09/26 04:51:06;;;;;;;7.03;3.05;;;10.60;99.90;;;;;;5122526;28;20031;-72
2022/09/26 04:53:33;;;;;;;4.95;2.63;;;10.60;99.90;;;;;;5123906;28;20118;-73
2022/09/26 04:55:59;;;;;;;6.15;2.75;;;10.60;99.90;;;;;;5120651;28;20055;-73
2022/09/26 04:58:26;;;;;;;6.70;3.40;;;10.60;99.90;;;;;;5123573;28;20036;-75
2022/09/26 05:00:51;;;;;;;5.68;3.33;;;10.60;99.90;;;;;;5122823;28;20020;-76
2022/09/26 05:03:17;;;;;;;7.00;3.40;;;10.60;99.90;;;;;;5123614;28;20076;-72
2022/09/26 05:05:46;;;;;;;4.97;3.30;;;10.70;99.90;;;;;;5122348;28;20043;-71
2022/09/26 05:08:13;;;;;;;10.23;3.67;;;10.70;99.90;;;;;;5123382;28;20696;-72
2022/09/26 05:10:40;;;;;;;9.15;3.13;;;10.70;99.90;;;;;;5123775;28;20035;-76
2022/09/26 05:13:06;;;;;;;6.78;3.25;;;10.70;99.90;;;;;;5123952;28;20038;-75
2022/09/26 05:15:38;;;;;;;12.68;3.60;;;10.70;99.90;;;;;;5122873;28;20031;-73
2022/09/26 05:18:10;;;;;;;5.63;3.20;;;10.80;99.90;;;;;;5120587;28;20443;-74
2022/09/26 05:20:37;;;;;;;11.73;3.03;;;10.80;99.90;;;;;;5122897;28;20032;-78
2022/09/26 05:23:05;;;;;;;5.63;2.80;;;10.80;99.90;;;;;;5123530;28;20080;-76
2022/09/26 05:28:23;;;;;;;4.68;3.03;;;10.70;99.90;;;;;;5123572;28;20076;-74
2022/09/26 05:30:50;;;;;;;5.38;2.65;;;10.70;99.90;;;;;;5122908;28;20051;-70
2022/09/26 05:33:20;;;;;;;11.18;3.03;;;10.70;99.90;;;;;;5121740;28;20027;-74
2022/09/26 05:35:49;;;;;;;7.90;3.97;;;10.70;99.90;;;;;;5123354;28;20038;-75
2022/09/26 05:38:16;;;;;;;9.60;3.30;;;10.70;99.90;;;;;;5123787;28;20023;-74
2022/09/26 05:40:56;;;;;;;10.15;3.80;;;10.70;99.90;;;;;;5123092;28;20027;-75
2022/09/26 05:43:33;;;;;;;7.70;2.85;;;10.70;99.90;;;;;;5122022;28;20399;-74
2022/09/26 05:46:04;;;;;;;7.25;3.55;;;10.70;99.90;;;;;;5122740;28;20123;-75
2022/09/26 05:48:32;;;;;;;12.70;4.05;;;10.70;99.90;;;;;;5116733;28;20080;-75
2022/09/26 05:51:11;;;;;;;7.15;3.35;;;10.70;99.90;;;;;;5121695;28;20042;-72
2022/09/26 05:53:39;;;;;;;9.15;3.33;;;10.80;99.90;;;;;;5122792;28;20049;-76
2022/09/26 05:56:06;;;;;;;7.10;2.92;;;10.80;99.90;;;;;;5122699;28;20070;-75
2022/09/26 05:58:34;;;;;;;9.18;3.60;;;10.80;99.90;;;;;;5122518;28;20404;-76
2022/09/26 06:01:15;;;;;;;5.50;2.92;;;10.80;99.90;;;;;;5122400;28;20032;-75
2022/09/26 06:03:43;;;;;;;8.45;3.50;;;10.80;99.90;;;;;;5123122;28;20042;-75
2022/09/26 06:06:15;;;;;;;8.27;3.63;;;10.80;99.90;;;;;;5119293;28;20059;-73
2022/09/26 06:08:43;;;;;;;9.48;3.80;;;10.80;99.90;;;;;;5121987;28;20042;-73
2022/09/26 06:11:12;;;;;;;11.23;3.50;;;10.80;99.90;;;;;;5121231;28;20036;-73
2022/09/26 06:13:44;;;;;;;6.65;3.80;;;10.80;99.90;;;;;;5118251;28;20031;-75
2022/09/26 06:16:17;;;;;;;8.48;4.22;;;10.80;99.90;;;;;;5117752;28;20040;-74
2022/09/26 06:18:43;;;;;;;7.10;3.85;;;10.80;99.90;;;;;;5121833;28;20020;-73
2022/09/26 06:21:12;;;;;;;15.48;4.05;;;10.80;99.90;;;;;;5120669;28;20038;-73
2022/09/26 06:23:38;;;;;;;14.45;4.60;;;10.80;99.90;;;;;;5120404;28;20418;-75
2022/09/26 06:26:13;;;;;;;17.42;4.93;;;10.80;99.90;;;;;;5122033;28;20119;-75
2022/09/26 06:28:39;;;;;;;7.72;3.88;;;10.80;99.90;;;;;;5119817;28;20032;-72
2022/09/26 06:31:11;;;;;;;8.02;4.30;;;10.70;99.90;;;;;;5121675;28;20031;-71
2022/09/26 06:33:37;;;;;;;9.82;4.35;;;10.70;99.90;;;;;;5122818;28;20035;-76
2022/09/26 06:36:05;;;;;;;12.15;4.50;;;10.70;99.90;;;;;;5121483;28;20015;-76
2022/09/26 06:38:33;;;;;;;10.13;4.32;;;10.70;99.90;;;;;;5121585;28;20032;-73
2022/09/26 06:40:58;;;;;;;12.57;3.97;;;10.70;99.90;;;;;;5117426;28;20031;-75
2022/09/26 06:43:24;;;;;;;11.13;4.97;;;10.70;99.90;;;;;;5119834;28;20055;-75
2022/09/26 06:45:49;;;;;;;9.65;4.35;;;10.70;99.90;;;;;;5121058;28;20031;-76
2022/09/26 06:48:16;;;;;;;8.35;4.22;;;10.70;99.90;;;;;;5120270;28;20585;-74
2022/09/26 06:50:44;;;;;;;7.35;3.83;;;10.70;99.90;;;;;;5120971;28;20024;-75
2022/09/26 06:53:10;;;;;;;10.93;4.55;;;10.70;99.90;;;;;;5118277;28;20024;-75
2022/09/26 06:55:36;;;;;;;11.77;4.32;;;10.70;99.90;;;;;;5118380;28;20031;-74
2022/09/26 06:58:01;;;;;;;9.82;4.57;;;10.60;99.90;;;;;;5118659;28;20026;-74
2022/09/26 07:00:34;;;;;;;22.05;4.45;;;10.70;99.90;;;;;;5121487;28;20479;-75
2022/09/26 07:03:00;;;;;;;15.43;4.57;;;10.70;99.90;;;;;;5115798;28;20024;-76
2022/09/26 07:05:26;;;;;;;9.23;4.32;;;10.70;99.90;;;;;;5121202;28;20039;-75
2022/09/26 07:07:53;;;;;;;9.25;4.78;;;10.80;99.90;;;;;;5118389;28;20030;-75
2022/09/26 07:10:20;;;;;;;9.80;4.75;;;10.80;99.90;;;;;;5121481;28;20060;-74
2022/09/26 07:12:47;;;;;;;12.35;5.35;;;10.90;99.90;;;;;;5119465;28;20030;-75
2022/09/26 07:15:19;;;;;;;10.93;4.75;;;10.80;99.90;;;;;;5121047;28;20023;-77
2022/09/26 07:17:49;;;;;;;13.40;5.05;;;10.80;99.90;;;;;;5121769;28;20019;-75
2022/09/26 07:20:19;;;;;;;12.73;5.03;;;10.90;99.90;;;;;;5120399;28;20042;-74
2022/09/26 07:22:45;;;;;;;10.57;4.90;;;10.80;99.90;;;;;;5121650;28;20036;-75
2022/09/26 07:25:13;;;;;;;12.52;4.43;;;10.90;99.90;;;;;;5122079;28;20057;-82
2022/09/26 07:27:40;;;;;;;9.48;5.07;;;10.90;99.90;;;;;;5121461;28;20024;-76
2022/09/26 07:30:08;;;;;;;20.98;5.55;;;10.90;99.90;;;;;;5119884;28;20038;-77
2022/09/26 07:32:35;;;;;;;8.20;5.00;;;11.00;99.90;;;;;;5121855;28;20027;-72
2022/09/26 07:35:03;;;;;;;11.57;5.05;;;11.00;99.90;;;;;;5121901;28;20027;-77
2022/09/26 07:37:30;;;;;;;12.52;5.68;;;11.00;99.90;;;;;;5120716;28;20027;-75
2022/09/26 07:39:56;;;;;;;14.30;5.88;;;11.00;99.90;;;;;;5119700;28;20019;-78
2022/09/26 07:42:22;;;;;;;12.93;5.93;;;11.10;99.90;;;;;;5119819;28;20059;-77
2022/09/26 07:44:47;;;;;;;9.30;4.85;;;11.10;99.90;;;;;;5118169;28;20047;-76
2022/09/26 07:50:11;;;;;;;17.42;6.63;;;11.10;99.90;;;;;;5119660;28;20170;-76
2022/09/26 07:52:40;;;;;;;12.65;5.72;;;11.20;99.90;;;;;;5118527;28;20024;-78
2022/09/26 07:55:07;;;;;;;15.45;6.00;;;11.20;99.90;;;;;;5118960;28;20027;-73
2022/09/26 07:57:34;;;;;;;15.00;5.68;;;11.30;99.90;;;;;;5119051;28;20028;-74
2022/09/26 08:00:12;;;;;;;10.75;5.53;;;11.30;99.90;;;;;;5115882;28;20016;-76
2022/09/26 08:02:45;;;;;;;8.30;5.00;;;11.40;99.90;;;;;;5116564;28;20126;-75
2022/09/26 08:05:18;;;;;;;10.57;4.93;;;11.40;99.90;;;;;;5117675;28;20061;-76
2022/09/26 08:07:46;;;;;;;9.30;5.15;;;11.50;99.90;;;;;;5120289;28;20069;-76
2022/09/26 08:10:18;;;;;;;8.45;5.00;;;11.60;99.90;;;;;;5119098;28;20053;-77
2022/09/26 08:12:44;;;;;;;11.65;4.90;;;11.60;99.90;;;;;;5117896;28;20035;-78
2022/09/26 08:15:11;;;;;;;7.55;4.30;;;11.80;99.90;;;;;;5120885;28;20046;-78
2022/09/26 08:17:37;;;;;;;13.30;4.72;;;11.70;99.90;;;;;;5120966;27;20026;-77
2022/09/26 08:20:04;;;;;;;11.60;5.18;;;11.80;99.90;;;;;;5120949;28;20491;-82
2022/09/26 08:22:29;;;;;;;12.85;4.18;;;11.80;99.90;;;;;;5124503;28;20531;-77
2022/09/26 08:24:55;;;;;;;11.52;5.25;;;11.80;99.90;;;;;;5124003;28;20074;-78
2022/09/26 08:27:21;;;;;;;9.63;4.18;;;11.80;99.90;;;;;;5121138;28;20042;-74
2022/09/26 08:29:53;;;;;;;8.70;4.38;;;11.90;99.90;;;;;;5123138;28;20054;-78
2022/09/26 08:32:19;;;;;;;10.63;4.78;;;11.90;99.90;;;;;;5122250;28;20182;-76
2022/09/26 08:34:46;;;;;;;6.57;3.55;;;11.90;99.90;;;;;;5123385;28;20038;-77
2022/09/26 08:37:13;;;;;;;8.00;3.35;;;11.90;99.90;;;;;;5121914;28;20053;-78
2022/09/26 08:39:39;;;;;;;10.52;3.92;;;12.00;99.90;;;;;;5123600;28;20038;-74
2022/09/26 08:42:10;;;;;;;6.47;3.95;;;12.00;99.90;;;;;;5123310;28;20047;-77
2022/09/26 08:48:20;;;;;;;7.68;4.10;;;12.00;99.90;;;;;;5123938;28;20043;-79
2022/09/26 08:50:56;;;;;;;7.75;4.00;;;12.00;99.90;;;;;;5121713;28;20080;-76
2022/09/26 08:53:25;;;;;;;8.65;4.25;;;12.00;99.90;;;;;;5121631;28;20106;-79
2022/09/26 08:55:54;;;;;;;6.95;3.72;;;12.00;99.90;;;;;;5122368;28;20028;-74
2022/09/26 08:58:39;;;;;;;14.60;4.55;;;12.00;99.90;;;;;;5121034;28;20118;-74
2022/09/26 09:01:22;;;;;;;8.55;3.60;;;12.00;99.90;;;;;;5121402;28;20012;-70
2022/09/26 09:03:53;;;;;;;7.55;4.05;;;12.00;99.90;;;;;;5118870;28;20031;-75
2022/09/26 09:06:19;;;;;;;10.07;4.78;;;12.00;99.90;;;;;;5121644;28;20050;-77
2022/09/26 09:08:51;;;;;;;9.95;4.13;;;12.10;99.90;;;;;;5122752;28;20035;-78
2022/09/26 09:11:38;;;;;;;10.25;4.68;;;12.10;99.90;;;;;;5123540;28;20106;-76
2022/09/26 09:14:24;;;;;;;15.10;4.82;;;12.10;99.90;;;;;;5123073;28;20042;-77
2022/09/26 09:17:16;;;;;;;9.98;4.25;;;12.10;99.90;;;;;;5123899;28;20016;-73
2022/09/26 09:20:03;;;;;;;11.65;4.63;;;12.10;99.90;;;;;;5116028;28;20031;-77
2022/09/26 09:23:23;;;;;;;13.02;4.15;;;12.10;99.90;;;;;;5116822;28;20035;-74
2022/09/26 09:26:03;;;;;;;10.80;4.78;;;12.10;99.90;;;;;;5097434;28;20044;-72
2022/09/26 09:28:50;;;;;;;9.30;4.78;;;12.10;99.90;;;;;;5116879;28;20023;-76
2022/09/26 09:31:17;;;;;;;10.00;4.72;;;12.10;99.90;;;;;;5120106;28;20059;-75
2022/09/26 09:33:47;;;;;;;16.02;5.95;;;12.00;99.90;;;;;;5123911;28;20030;-76
2022/09/26 09:36:20;;;;;;;8.52;4.63;;;12.10;99.90;;;;;;5122750;28;20411;-78
2022/09/26 09:38:48;;;;;;;10.93;5.30;;;12.10;99.90;;;;;;5122586;28;20020;-76
2022/09/26 09:41:20;;;;;;;8.55;4.57;;;12.10;99.90;;;;;;5121098;28;20060;-74
2022/09/26 09:44:01;;;;;;;8.32;4.75;;;12.10;99.90;;;;;;5121547;28;20066;-73
2022/09/26 09:46:41;;;;;;;14.05;5.25;;;12.10;99.90;;;;;;5120837;28;20042;-75
2022/09/26 09:49:07;;;;;;;9.27;4.32;;;12.10;99.90;;;;;;5121100;28;20034;-76
2022/09/26 09:51:39;;;;;;;8.68;4.75;;;12.10;99.90;;;;;;5119917;28;20536;-71
2022/09/26 09:54:14;;;;;;;11.63;5.15;;;12.00;99.90;;;;;;5121896;28;20036;-76
2022/09/26 09:57:06;;;;;;;7.60;4.57;;;12.00;99.90;;;;;;5122544;28;20027;-75
2022/09/26 09:59:58;;;;;;;8.75;4.65;;;12.00;99.90;;;;;;5122767;28;20438;-76
2022/09/26 10:02:58;;;;;;;9.73;5.00;;;12.00;99.90;;;;;;5121442;28;20105;-80
2022/09/26 10:05:47;;;;;;;11.05;4.85;;;12.00;99.90;;;;;;5121718;28;20023;-74
2022/09/26 10:08:34;;;;;;;8.15;3.70;;;12.00;99.90;;;;;;5120779;28;20046;-75
2022/09/26 10:11:22;;;;;;;11.20;4.43;;;11.90;99.90;;;;;;5121720;28;20024;-73
2022/09/26 10:13:52;;;;;;;8.65;4.22;;;11.80;99.90;;;;;;5120408;28;20112;-75
2022/09/26 10:16:18;;;;;;;8.63;4.00;;;11.80;99.90;;;;;;5120773;28;20023;-74
2022/09/26 10:18:54;;;;;;;7.00;4.00;;;11.80;99.90;;;;;;5120271;28;20464;-73
2022/09/26 10:21:20;;;;;;;7.32;3.60;;;11.80;99.90;;;;;;5121789;28;20468;-72
2022/09/26 10:23:49;;;;;;;9.50;3.72;;;11.80;99.90;;;;;;5121567;28;20042;-73
2022/09/26 10:26:23;;;;;;;9.35;4.00;;;11.80;99.90;;;;;;5119909;28;20087;-74
2022/09/26 10:28:54;;;;;;;8.25;4.05;;;11.80;99.90;;;;;;5120409;28;20047;-72
2022/09/26 10:31:35;;;;;;;9.13;3.78;;;11.80;99.90;;;;;;5120391;28;20080;-75
2022/09/26 10:34:06;;;;;;;7.70;3.45;;;11.80;99.90;;;;;;5121479;28;20769;-72
2022/09/26 10:36:35;;;;;;;8.60;4.28;;;11.80;99.90;;;;;;5118758;28;20023;-76
2022/09/26 10:42:14;;;;;;;6.25;3.55;;;11.90;99.90;;;;;;5120918;28;20050;-75
2022/09/26 10:44:41;;;;;;;7.22;3.13;;;11.90;99.90;;;;;;5118938;28;20502;-75
2022/09/26 10:47:14;;;;;;;9.52;4.25;;;11.90;99.90;;;;;;5120754;28;20035;-76
2022/09/26 10:50:06;;;;;;;10.00;4.13;;;11.80;99.90;;;;;;5122140;28;20039;-80
2022/09/26 10:52:44;;;;;;;9.93;4.47;;;11.80;99.90;;;;;;5120113;28;20038;-75
2022/09/26 10:55:27;;;;;;;10.77;4.75;;;11.80;99.90;;;;;;5116802;28;20099;-76
2022/09/26 10:57:57;;;;;;;14.10;5.47;;;11.80;99.90;;;;;;5115375;28;20404;-76
2022/09/26 11:00:47;;;;;;;10.30;5.60;;;11.90;99.90;;;;;;5116857;28;20028;-75
2022/09/26 11:03:16;;;;;;;11.75;5.55;;;11.80;99.90;;;;;;5122283;28;20032;-75
2022/09/26 11:05:57;;;;;;;14.45;5.88;;;11.90;99.90;;;;;;5120440;28;20039;-75
2022/09/26 11:08:32;;;;;;;13.65;6.65;;;11.90;99.90;;;;;;5120315;28;20027;-73
2022/09/26 11:11:04;;;;;;;18.42;6.72;;;11.90;99.90;;;;;;5120181;28;20028;-74
2022/09/26 11:14:02;;;;;;;17.27;6.88;;;11.80;99.90;;;;;;5118566;28;20034;-75
2022/09/26 11:16:28;;;;;;;14.73;6.18;;;11.80;99.90;;;;;;5119542;28;20091;-73
2022/09/26 11:19:05;;;;;;;11.70;6.47;;;11.70;99.90;;;;;;5121359;28;20020;-76
2022/09/26 11:22:13;;;;;;;10.77;6.05;;;11.80;99.90;;;;;;5118855;28;20042;-75
2022/09/26 11:25:10;;;;;;;15.70;6.13;;;11.80;99.90;;;;;;5119930;28;20043;-76
2022/09/26 11:27:50;;;;;;;13.43;6.47;;;11.70;99.90;;;;;;5121049;28;20133;-76
2022/09/26 11:30:19;;;;;;;13.02;6.90;;;11.70;99.90;;;;;;5118426;28;20063;-75
2022/09/26 11:32:55;;;;;;;17.45;6.55;;;11.70;99.90;;;;;;5118578;28;20043;-77
2022/09/26 11:35:43;;;;;;;11.43;5.47;;;11.70;99.90;;;;;;5117116;28;20040;-80
2022/09/26 11:38:41;;;;;;;14.00;5.43;;;11.70;99.90;;;;;;5118216;28;20016;-72
2022/09/26 11:41:38;;;;;;;11.57;6.47;;;11.70;99.90;;;;;;5119060;28;20058;-72
2022/09/26 11:44:49;;;;;;;12.10;5.72;;;11.80;99.90;;;;;;5120730;28;20071;-74
2022/09/26 11:47:29;;;;;;;14.90;6.25;;;11.80;99.90;;;;;;5116768;28;20508;-74
2022/09/26 11:50:20;;;;;;;12.07;6.05;;;11.90;99.90;;;;;;5120009;28;20096;-74
2022/09/26 11:52:52;;;;;;;11.25;5.63;;;11.90;99.90;;;;;;5123309;28;20084;-74
2022/09/26 11:56:01;;;;;;;9.48;5.10;;;11.90;99.90;;;;;;5123228;28;20372;-74
2022/09/26 11:58:58;;;;;;;10.80;4.80;;;12.00;99.90;;;;;;5124771;28;20498;-71
2022/09/26 12:01:47;;;;;;;9.70;5.43;;;11.90;99.90;;;;;;5105272;28;20039;-72
2022/09/26 12:04:41;;;;;;;9.90;4.68;;;12.00;99.90;;;;;;5124458;28;20086;-70
2022/09/26 12:07:19;;;;;;;8.48;4.88;;;12.00;99.90;;;;;;5124182;28;20062;-75
2022/09/26 12:09:46;;;;;;;6.65;4.07;;;11.90;99.90;;;;;;5124693;28;20027;-73
2022/09/26 12:12:23;;;;;;;8.90;5.00;;;11.90;99.90;;;;;;5124089;28;20028;-72
2022/09/26 12:15:20;;;;;;;14.50;5.82;;;11.90;99.90;;;;;;5122173;28;20031;-72
2022/09/26 12:17:58;;;;;;;10.73;5.65;;;11.80;99.90;;;;;;5122698;28;20028;-75
2022/09/26 12:20:38;;;;;;;9.68;4.93;;;11.80;99.90;;;;;;5123326;28;20020;-72
2022/09/26 12:23:16;;;;;;;10.93;4.90;;;11.70;99.90;;;;;;5123048;28;20030;-75
2022/09/26 12:26:07;;;;;;;12.02;5.65;;;11.60;99.90;;;;;;5120154;28;20043;-74
2022/09/26 12:29:04;;;;;;;11.60;5.55;;;11.60;99.90;;;;;;5121361;28;20032;-73
2022/09/26 12:31:30;;;;;;;13.65;5.90;;;11.50;99.90;;;;;;5123091;28;20020;-72
2022/09/26 12:34:54;;;;;;;11.40;6.28;;;11.50;99.90;;;;;;5124497;28;20023;-78
2022/09/26 12:37:22;;;;;;;10.38;5.70;;;11.50;99.90;;;;;;5081620;28;20052;-73
2022/09/26 12:40:09;;;;;;;10.55;5.60;;;11.40;99.90;;;;;;5080532;28;20579;-73
2022/09/26 12:42:38;;;;;;;22.55;5.70;;;11.40;99.90;;;;;;5099856;28;20652;-73
2022/09/26 12:45:25;;;;;;;12.80;5.63;;;11.40;99.90;;;;;;5122433;28;20126;-72
2022/09/26 12:48:00;;;;;;;8.25;4.60;;;11.40;99.90;;;;;;5123303;28;20028;-78
2022/09/26 12:50:29;;;;;;;7.88;4.88;;;11.30;99.90;;;;;;5124229;28;20028;-71
2022/09/26 12:53:16;;;;;;;12.32;5.90;;;11.30;99.90;;;;;;5123358;28;20096;-71
2022/09/26 12:56:05;;;;;;;15.98;6.38;;;11.30;99.90;;;;;;5124111;28;20055;-75
2022/09/26 12:58:49;;;;;;;11.93;6.13;;;11.30;99.90;;;;;;5123410;28;20019;-71
2022/09/26 13:01:54;;;;;;;11.20;5.88;;;11.30;99.90;;;;;;5122740;28;20273;-72
2022/09/26 13:04:27;;;;;;;14.30;6.22;;;11.30;99.90;;;;;;5122870;28;20430;-73
2022/09/26 13:07:12;;;;;;;8.82;5.35;;;11.30;99.90;;;;;;5124240;28;20034;-75
2022/09/26 13:09:56;;;;;;;9.18;5.13;;;11.20;99.90;;;;;;5123529;28;20020;-77
2022/09/26 13:12:25;;;;;;;13.00;6.18;;;11.20;99.90;;;;;;5122290;28;20036;-76
2022/09/26 13:15:22;;;;;;;8.93;5.00;;;11.20;99.90;;;;;;5123504;28;20036;-73
2022/09/26 13:17:57;;;;;;;13.60;6.18;;;11.10;99.90;;;;;;5117168;28;20035;-71
2022/09/26 13:20:28;;;;;;;9.05;5.22;;;11.10;99.90;;;;;;5123174;28;20023;-75
2022/09/26 13:23:47;;;;;;;12.93;5.68;;;11.10;99.90;;;;;;5122289;28;20027;-73
2022/09/26 13:26:31;;;;;;;13.30;5.78;;;11.10;99.90;;;;;;5100095;28;20048;-75
2022/09/26 13:29:07;;;;;;;17.25;6.43;;;11.00;99.90;;;;;;5099835;28;20047;-75
2022/09/26 13:31:43;;;;;;;15.60;6.72;;;11.00;99.90;;;;;;5116496;28;20069;-72
2022/09/26 13:34:37;;;;;;;17.55;8.15;;;11.00;99.90;;;;;;5123327;28;20023;-74
2022/09/26 13:37:08;;;;;;;8.52;4.75;;;11.00;99.90;;;;;;5122737;28;20027;-71